Time;durP1;ratioP1;P1;durP2;ratioP2;P2;SDS_P1;SDS_P2;PMS_P1;PMS_P2;Temp;Humidity;BMP_temperature;BMP_pressure;BME280_temperature;BME280_humidity;BME280_pressure;Samples;Min_cycle;Max_cycle;Signal;HPM_P1;HPM_P2
2021/08/13 00:02:07;;;;;;;14.07;7.05;;;21.80;92.10;;;;;;5032267;28;20026;-70
2021/08/13 00:04:32;;;;;;;12.27;7.50;;;21.70;92.00;;;;;;5032392;28;20091;-70
2021/08/13 00:06:58;;;;;;;18.60;7.65;;;21.70;92.10;;;;;;5032207;28;20414;-69
2021/08/13 00:09:23;;;;;;;12.48;6.68;;;21.70;92.10;;;;;;5032187;28;20033;-70
2021/08/13 00:11:49;;;;;;;14.52;7.95;;;21.70;92.30;;;;;;5032599;28;20033;-71
2021/08/13 00:14:15;;;;;;;12.70;7.50;;;21.60;92.50;;;;;;5032160;28;20577;-72
2021/08/13 00:16:41;;;;;;;11.80;7.30;;;21.60;92.80;;;;;;5030940;28;20044;-71
2021/08/13 00:19:07;;;;;;;10.07;6.60;;;21.60;92.70;;;;;;5031072;28;20041;-69
2021/08/13 00:21:33;;;;;;;13.70;8.00;;;21.60;92.60;;;;;;5032127;28;20105;-70
2021/08/13 00:24:00;;;;;;;17.42;7.70;;;21.60;92.50;;;;;;5032274;28;20085;-70
2021/08/13 00:26:27;;;;;;;12.02;7.25;;;21.60;92.50;;;;;;5032132;28;20041;-70
2021/08/13 00:28:54;;;;;;;9.80;7.30;;;21.50;92.50;;;;;;5031979;28;20033;-70
2021/08/13 00:31:19;;;;;;;12.30;7.53;;;21.50;92.70;;;;;;5031685;28;20113;-71
2021/08/13 00:33:45;;;;;;;14.52;7.28;;;21.40;92.80;;;;;;5031659;28;20503;-69
2021/08/13 00:36:10;;;;;;;12.93;6.55;;;21.50;93.00;;;;;;5032132;28;20080;-70
2021/08/13 00:38:36;;;;;;;12.45;7.38;;;21.40;93.00;;;;;;5031583;28;20363;-71
2021/08/13 00:41:03;;;;;;;14.43;7.47;;;21.40;93.00;;;;;;5031548;28;20032;-69
2021/08/13 00:43:29;;;;;;;14.37;7.70;;;21.40;93.10;;;;;;5031644;28;20090;-70
2021/08/13 00:45:55;;;;;;;16.83;7.53;;;21.40;93.20;;;;;;5031415;28;20038;-70
2021/08/13 00:48:20;;;;;;;12.02;7.38;;;21.30;93.20;;;;;;5031403;28;20029;-71
2021/08/13 00:50:46;;;;;;;12.98;7.35;;;21.30;93.20;;;;;;5032014;28;20491;-72
2021/08/13 00:53:12;;;;;;;15.55;7.65;;;21.30;93.30;;;;;;5031538;28;20371;-70
2021/08/13 00:55:38;;;;;;;12.02;7.25;;;21.30;93.30;;;;;;5031531;28;20125;-71
2021/08/13 00:58:06;;;;;;;15.40;7.25;;;21.30;93.40;;;;;;5031336;28;20504;-71
2021/08/13 01:00:32;;;;;;;19.10;7.32;;;21.20;93.40;;;;;;5031386;28;20030;-70
2021/08/13 01:02:58;;;;;;;12.18;7.28;;;21.30;93.40;;;;;;5031779;28;20017;-70
2021/08/13 01:05:24;;;;;;;13.88;7.60;;;21.20;93.40;;;;;;5031191;28;20159;-70
2021/08/13 01:07:49;;;;;;;16.83;7.03;;;21.20;93.40;;;;;;5031448;28;20026;-71
2021/08/13 01:10:15;;;;;;;15.25;7.78;;;21.20;93.40;;;;;;5031120;28;20025;-71
2021/08/13 01:12:59;;;;;;;22.52;7.45;;;21.20;93.60;;;;;;5031182;28;20076;-70
2021/08/13 01:15:28;;;;;;;15.50;7.47;;;21.20;93.50;;;;;;5031032;28;20072;-70
2021/08/13 01:17:57;;;;;;;11.52;7.57;;;21.20;93.70;;;;;;5031696;28;20608;-70
2021/08/13 01:20:42;;;;;;;14.15;9.00;;;21.10;93.80;;;;;;5031093;28;20191;-70
2021/08/13 01:23:32;;;;;;;12.30;7.93;;;21.10;93.60;;;;;;5030838;28;20049;-71
2021/08/13 01:26:01;;;;;;;11.05;7.72;;;21.00;93.80;;;;;;5030850;28;20109;-71
2021/08/13 01:28:45;;;;;;;14.35;7.70;;;20.90;93.70;;;;;;5030461;28;20091;-72
2021/08/13 01:31:23;;;;;;;11.55;8.02;;;20.90;93.80;;;;;;5030942;28;20044;-71
2021/08/13 01:33:57;;;;;;;15.57;8.27;;;20.80;93.90;;;;;;5030871;28;20617;-71
2021/08/13 01:36:27;;;;;;;13.52;7.78;;;20.80;94.00;;;;;;5043757;28;20112;-71
2021/08/13 01:38:54;;;;;;;15.10;7.85;;;20.70;94.10;;;;;;5051243;28;20017;-70
2021/08/13 01:41:22;;;;;;;15.98;8.00;;;20.70;94.30;;;;;;5050695;28;20037;-70
2021/08/13 01:43:50;;;;;;;17.80;8.40;;;20.60;94.40;;;;;;5050694;28;20025;-71
2021/08/13 01:46:16;;;;;;;19.47;8.07;;;20.60;94.50;;;;;;5050796;28;20078;-71
2021/08/13 01:48:42;;;;;;;15.32;8.15;;;20.50;94.60;;;;;;5050524;28;20033;-71
2021/08/13 01:51:14;;;;;;;12.73;8.18;;;20.40;94.60;;;;;;5050977;28;20025;-72
2021/08/13 01:53:40;;;;;;;13.93;7.55;;;20.40;94.60;;;;;;5050578;28;20033;-72
2021/08/13 01:56:07;;;;;;;19.23;7.88;;;20.40;94.80;;;;;;5050459;28;20025;-71
2021/08/13 01:58:33;;;;;;;15.05;8.40;;;20.30;95.00;;;;;;5050762;28;20028;-71
2021/08/13 02:00:59;;;;;;;19.98;8.13;;;20.30;95.10;;;;;;5050446;28;20639;-71
2021/08/13 02:03:24;;;;;;;16.55;8.40;;;20.20;95.20;;;;;;5050341;28;20029;-71
2021/08/13 02:05:52;;;;;;;17.83;8.30;;;20.20;95.30;;;;;;5051058;28;20021;-71
2021/08/13 02:08:18;;;;;;;;;;;20.20;95.20;;;;;;5051063;28;20030;-70
2021/08/13 02:10:45;;;;;;;13.30;8.05;;;20.10;95.40;;;;;;5050574;28;19936;-71
2021/08/13 02:13:12;;;;;;;16.50;8.32;;;20.20;95.40;;;;;;5050282;28;20478;-71
2021/08/13 02:15:41;;;;;;;21.67;8.60;;;20.10;95.50;;;;;;5050347;28;20371;-71
2021/08/13 02:18:20;;;;;;;18.83;8.57;;;20.10;95.50;;;;;;5050754;28;20021;-70
2021/08/13 02:20:48;;;;;;;13.27;8.55;;;20.00;95.60;;;;;;5050404;28;20041;-71
2021/08/13 02:23:16;;;;;;;12.60;7.68;;;20.00;95.70;;;;;;5050165;28;20049;-71
2021/08/13 02:25:42;;;;;;;15.85;8.82;;;20.00;95.70;;;;;;5050343;28;20029;-70
2021/08/13 02:28:07;;;;;;;20.00;9.73;;;20.00;95.90;;;;;;5050252;28;20025;-71
2021/08/13 02:30:33;;;;;;;11.48;7.78;;;19.90;96.10;;;;;;5050376;28;20028;-71
2021/08/13 02:32:59;;;;;;;12.10;8.93;;;19.80;96.20;;;;;;5050670;28;20048;-72
2021/08/13 02:35:25;;;;;;;20.90;8.45;;;19.80;96.20;;;;;;5050348;28;20029;-70
2021/08/13 02:38:08;;;;;;;15.13;8.65;;;19.80;96.30;;;;;;5049121;28;20536;-71
2021/08/13 02:40:40;;;;;;;17.80;9.05;;;19.80;96.40;;;;;;5051760;28;20029;-71
2021/08/13 02:43:24;;;;;;;18.00;9.60;;;19.90;96.40;;;;;;5053970;28;20144;-71
2021/08/13 02:45:53;;;;;;;16.95;9.68;;;19.80;96.50;;;;;;5053491;28;20494;-71
2021/08/13 02:48:19;;;;;;;18.23;9.85;;;19.70;96.60;;;;;;5053719;28;20056;-71
2021/08/13 02:50:48;;;;;;;13.13;8.65;;;19.60;96.80;;;;;;5054030;28;20229;-71
2021/08/13 02:53:20;;;;;;;13.57;8.15;;;19.60;96.70;;;;;;5053612;28;20044;-72
2021/08/13 02:56:03;;;;;;;17.67;8.13;;;19.60;96.90;;;;;;5053546;28;20029;-70
2021/08/13 02:58:48;;;;;;;13.63;9.30;;;19.60;97.00;;;;;;5053555;28;20079;-72
2021/08/13 03:01:18;;;;;;;14.02;8.75;;;19.50;97.00;;;;;;5053502;28;20060;-72
2021/08/13 03:03:45;;;;;;;16.98;9.25;;;19.50;97.30;;;;;;5053592;28;20091;-72
2021/08/13 03:06:12;;;;;;;17.45;8.98;;;19.50;97.30;;;;;;5053916;28;20013;-71
2021/08/13 03:08:40;;;;;;;13.18;8.52;;;19.50;97.40;;;;;;5053321;28;20052;-71
2021/08/13 03:11:06;;;;;;;16.42;8.60;;;19.40;97.50;;;;;;5053376;28;20527;-72
2021/08/13 03:13:33;;;;;;;13.98;8.80;;;19.50;97.50;;;;;;5053226;28;20121;-72
2021/08/13 03:15:59;;;;;;;13.65;8.70;;;19.40;97.50;;;;;;5053056;28;20040;-70
2021/08/13 03:18:27;;;;;;;15.80;9.05;;;19.30;97.60;;;;;;5052976;28;20025;-70
2021/08/13 03:20:53;;;;;;;16.55;8.25;;;19.30;97.60;;;;;;5053391;28;20017;-70
2021/08/13 03:23:19;;;;;;;17.17;8.68;;;19.20;97.70;;;;;;5051777;28;20734;-71
2021/08/13 03:25:45;;;;;;;13.38;8.80;;;19.30;97.90;;;;;;5053058;28;20033;-71
2021/08/13 03:28:11;;;;;;;17.27;8.48;;;19.30;97.70;;;;;;5052936;28;20114;-71
2021/08/13 03:30:44;;;;;;;13.25;8.10;;;19.30;97.80;;;;;;5051943;28;20079;-72
2021/08/13 03:33:11;;;;;;;13.70;9.40;;;19.20;97.70;;;;;;5053098;28;20112;-70
2021/08/13 03:35:38;;;;;;;13.63;8.27;;;19.20;97.80;;;;;;5052862;28;20033;-71
2021/08/13 03:38:04;;;;;;;12.82;8.98;;;19.20;97.90;;;;;;5052706;28;20462;-72
2021/08/13 03:40:30;;;;;;;12.65;8.20;;;19.30;97.90;;;;;;5052781;28;20114;-70
2021/08/13 03:42:55;;;;;;;11.95;8.25;;;19.30;97.90;;;;;;5052996;28;20079;-71
2021/08/13 03:45:21;;;;;;;14.13;8.75;;;19.20;97.90;;;;;;5052701;28;20028;-72
2021/08/13 03:47:47;;;;;;;16.05;8.15;;;19.20;97.90;;;;;;5053024;28;20491;-71
2021/08/13 03:50:12;;;;;;;12.35;8.57;;;19.20;97.90;;;;;;5052465;28;20025;-71
2021/08/13 03:52:39;;;;;;;15.02;9.10;;;19.20;98.00;;;;;;5052091;28;20511;-71
2021/08/13 03:55:05;;;;;;;13.27;8.30;;;19.10;98.00;;;;;;5052481;28;20467;-72
2021/08/13 03:57:31;;;;;;;17.38;9.13;;;19.10;98.10;;;;;;5051130;28;20053;-71
2021/08/13 03:59:57;;;;;;;14.57;9.43;;;19.10;98.20;;;;;;5052824;28;20039;-72
2021/08/13 04:02:22;;;;;;;11.35;8.52;;;19.00;98.30;;;;;;5052077;28;20025;-71
2021/08/13 04:04:48;;;;;;;14.98;8.07;;;19.10;98.20;;;;;;5052375;28;20085;-70
2021/08/13 04:07:13;;;;;;;13.68;9.30;;;19.00;98.40;;;;;;5052236;28;20071;-70
2021/08/13 04:09:39;;;;;;;17.25;9.52;;;19.00;98.40;;;;;;5052128;28;20062;-73
2021/08/13 04:12:05;;;;;;;15.98;8.68;;;18.90;98.50;;;;;;5052462;28;20024;-72
2021/08/13 04:14:31;;;;;;;14.15;9.48;;;19.00;98.50;;;;;;5051879;28;20033;-72
2021/08/13 04:16:57;;;;;;;22.08;9.98;;;19.10;98.40;;;;;;5052092;28;20638;-71
2021/08/13 04:19:22;;;;;;;19.92;9.20;;;19.00;98.40;;;;;;5051852;28;20048;-72
2021/08/13 04:21:49;;;;;;;16.00;8.65;;;19.00;98.40;;;;;;5051194;28;20025;-73
2021/08/13 04:24:14;;;;;;;18.33;9.30;;;19.00;98.50;;;;;;5051901;28;20068;-71
2021/08/13 04:26:40;;;;;;;16.45;9.40;;;19.00;98.60;;;;;;5051769;28;20371;-70
2021/08/13 04:29:05;;;;;;;13.73;8.48;;;18.90;98.60;;;;;;5051707;28;20482;-72
2021/08/13 04:31:31;;;;;;;15.18;9.02;;;18.90;98.70;;;;;;5051736;28;20021;-71
2021/08/13 04:33:56;;;;;;;14.13;8.65;;;19.00;98.60;;;;;;5051800;28;20106;-71
2021/08/13 04:36:22;;;;;;;16.52;9.80;;;19.00;98.60;;;;;;5051667;28;20053;-71
2021/08/13 04:38:47;;;;;;;17.83;9.48;;;19.00;98.70;;;;;;5052021;28;20025;-71
2021/08/13 04:41:13;;;;;;;16.63;8.65;;;19.10;98.70;;;;;;5051527;28;20021;-71
2021/08/13 04:43:38;;;;;;;13.43;8.43;;;19.10;98.50;;;;;;5051580;28;20056;-72
2021/08/13 04:46:04;;;;;;;17.33;9.02;;;19.10;98.50;;;;;;5051502;28;20105;-71
2021/08/13 04:48:30;;;;;;;12.73;8.77;;;19.20;98.60;;;;;;5051264;28;20086;-70
2021/08/13 04:50:55;;;;;;;11.85;8.18;;;19.30;98.40;;;;;;5050681;28;20032;-71
2021/08/13 04:53:21;;;;;;;16.02;9.10;;;19.20;98.40;;;;;;5051369;28;20037;-70
2021/08/13 04:55:47;;;;;;;16.90;9.05;;;19.20;98.20;;;;;;5051255;28;20036;-73
2021/08/13 04:58:12;;;;;;;12.32;8.43;;;19.30;98.20;;;;;;5050027;28;20205;-72
2021/08/13 05:00:39;;;;;;;18.83;9.60;;;19.40;98.20;;;;;;5051080;28;20021;-71
2021/08/13 05:03:06;;;;;;;12.27;8.68;;;19.30;98.20;;;;;;5051101;28;20035;-70
2021/08/13 05:05:32;;;;;;;13.50;8.43;;;19.40;98.10;;;;;;5050040;28;20029;-72
2021/08/13 05:07:57;;;;;;;17.92;8.43;;;19.40;98.20;;;;;;5051230;28;20033;-72
2021/08/13 05:10:23;;;;;;;18.83;8.48;;;19.40;98.20;;;;;;5051240;28;20041;-72
2021/08/13 05:12:50;;;;;;;13.07;8.45;;;19.40;98.10;;;;;;5050877;28;20120;-71
2021/08/13 05:15:16;;;;;;;12.25;8.43;;;19.50;98.00;;;;;;5050800;28;20017;-72
2021/08/13 05:17:42;;;;;;;19.48;9.98;;;19.50;98.20;;;;;;5051492;28;20465;-70
2021/08/13 05:20:08;;;;;;;16.40;8.60;;;19.50;98.20;;;;;;5050790;28;20057;-71
2021/08/13 05:22:35;;;;;;;20.17;8.93;;;19.50;98.10;;;;;;5049893;28;20064;-72
2021/08/13 05:25:05;;;;;;;20.98;9.43;;;19.50;98.00;;;;;;5050849;28;20060;-73
2021/08/13 05:27:31;;;;;;;20.38;10.30;;;19.50;98.40;;;;;;5051023;28;20029;-70
2021/08/13 05:29:57;;;;;;;14.93;8.50;;;19.50;98.50;;;;;;5051640;28;20401;-70
2021/08/13 05:32:23;;;;;;;16.63;8.82;;;19.50;98.40;;;;;;5049912;28;20036;-71
2021/08/13 05:34:49;;;;;;;14.23;8.50;;;19.50;98.20;;;;;;5050725;28;20037;-72
2021/08/13 05:37:14;;;;;;;17.67;9.13;;;19.60;97.90;;;;;;5050674;28;20029;-71
2021/08/13 05:39:40;;;;;;;22.60;8.75;;;19.60;98.00;;;;;;5050545;28;20040;-69
2021/08/13 05:42:05;;;;;;;14.02;7.57;;;19.70;98.00;;;;;;5051191;28;20025;-71
2021/08/13 05:44:31;;;;;;;12.93;7.97;;;19.70;97.80;;;;;;5050567;28;20047;-71
2021/08/13 05:46:57;;;;;;;17.98;7.60;;;19.70;97.70;;;;;;5049130;28;20033;-71
2021/08/13 05:49:22;;;;;;;11.68;6.78;;;19.80;97.70;;;;;;5050384;28;20047;-71
2021/08/13 05:51:48;;;;;;;18.58;7.55;;;19.80;97.50;;;;;;5050228;28;20486;-70
2021/08/13 05:54:13;;;;;;;11.05;6.88;;;19.80;97.40;;;;;;5050025;28;20123;-71
2021/08/13 05:56:39;;;;;;;14.18;7.15;;;19.90;97.40;;;;;;5050527;28;20076;-71
2021/08/13 05:59:05;;;;;;;10.95;7.70;;;19.90;97.30;;;;;;5050763;28;20044;-71
2021/08/13 06:01:31;;;;;;;19.52;7.43;;;19.90;97.30;;;;;;5050491;28;20087;-71
2021/08/13 06:03:57;;;;;;;19.25;8.23;;;20.00;97.30;;;;;;5050674;28;20021;-73
2021/08/13 06:06:22;;;;;;;15.90;7.78;;;20.00;97.10;;;;;;5050367;28;20021;-71
2021/08/13 06:08:48;;;;;;;14.65;7.88;;;20.00;97.10;;;;;;5051037;28;20025;-70
2021/08/13 06:11:14;;;;;;;14.13;7.47;;;20.10;97.10;;;;;;5050644;28;20029;-73
2021/08/13 06:13:40;;;;;;;10.82;6.60;;;20.10;97.00;;;;;;5050338;28;20483;-72
2021/08/13 06:16:06;;;;;;;11.68;6.63;;;20.20;97.10;;;;;;5054353;28;20458;-73
2021/08/13 06:18:31;;;;;;;11.98;6.25;;;20.20;96.90;;;;;;5054151;28;20068;-73
2021/08/13 06:20:57;;;;;;;13.98;7.25;;;20.30;96.90;;;;;;5054496;28;20061;-72
2021/08/13 06:23:22;;;;;;;23.63;11.07;;;20.40;97.00;;;;;;5053730;28;20033;-72
2021/08/13 06:25:48;;;;;;;15.45;9.02;;;20.40;96.80;;;;;;5053662;28;20032;-72
2021/08/13 06:28:14;;;;;;;18.67;7.40;;;20.40;96.70;;;;;;5053494;28;20040;-80
2021/08/13 06:30:40;;;;;;;24.55;7.93;;;20.50;96.70;;;;;;5053701;28;20040;-75
2021/08/13 06:33:05;;;;;;;10.10;6.60;;;20.60;96.60;;;;;;5054380;28;20025;-73
2021/08/13 06:35:31;;;;;;;13.95;8.63;;;20.70;96.60;;;;;;5054007;28;20352;-71
2021/08/13 06:37:57;;;;;;;17.40;11.40;;;20.80;96.60;;;;;;5053830;28;20127;-70
2021/08/13 06:40:24;;;;;;;20.92;10.13;;;20.90;96.40;;;;;;5053361;28;20047;-74
2021/08/13 06:42:50;;;;;;;13.07;7.47;;;20.90;96.30;;;;;;5053806;28;20459;-75
2021/08/13 06:45:19;;;;;;;14.90;7.28;;;20.90;96.10;;;;;;5053970;28;20037;-73
2021/08/13 06:47:45;;;;;;;10.82;5.78;;;20.90;96.20;;;;;;5052876;28;20021;-73
2021/08/13 06:50:12;;;;;;;13.40;6.32;;;21.00;96.00;;;;;;5052595;28;20029;-70
2021/08/13 06:52:38;;;;;;;24.30;6.97;;;21.00;96.10;;;;;;5053731;28;20037;-74
2021/08/13 06:55:05;;;;;;;17.08;7.25;;;21.10;96.20;;;;;;5053366;28;20472;-72
2021/08/13 06:57:31;;;;;;;13.32;6.35;;;21.20;96.10;;;;;;5053459;28;20024;-74
2021/08/13 06:59:56;;;;;;;17.85;6.68;;;21.30;95.90;;;;;;5053649;28;20434;-85
2021/08/13 07:02:23;;;;;;;11.90;6.03;;;21.40;95.90;;;;;;5053205;28;20100;-72
2021/08/13 07:04:49;;;;;;;9.38;6.05;;;21.50;95.50;;;;;;5053359;28;20416;-73
2021/08/13 07:07:15;;;;;;;14.30;7.97;;;21.60;95.20;;;;;;5053533;28;20092;-74
2021/08/13 07:09:46;;;;;;;12.00;7.13;;;21.70;95.00;;;;;;5053286;28;20454;-76
2021/08/13 07:12:12;;;;;;;14.73;8.48;;;21.80;95.00;;;;;;5053715;28;20585;-74
2021/08/13 07:14:37;;;;;;;12.52;7.00;;;21.90;95.00;;;;;;5053150;28;20116;-75
2021/08/13 07:17:03;;;;;;;11.18;5.88;;;22.00;94.80;;;;;;5052889;28;20400;-74
2021/08/13 07:19:28;;;;;;;13.98;6.05;;;22.10;94.50;;;;;;5052751;28;20037;-74
2021/08/13 07:21:54;;;;;;;15.98;7.72;;;22.20;94.60;;;;;;5053327;28;20297;-74
2021/08/13 07:24:21;;;;;;;20.23;10.82;;;22.30;94.70;;;;;;5052917;28;20045;-73
2021/08/13 07:26:47;;;;;;;18.70;7.82;;;22.40;94.60;;;;;;5052750;28;20017;-71
2021/08/13 07:29:13;;;;;;;17.42;6.93;;;22.60;94.50;;;;;;5052922;28;20025;-73
2021/08/13 07:31:39;;;;;;;10.25;6.55;;;22.60;94.30;;;;;;5053049;28;20526;-72
2021/08/13 07:34:04;;;;;;;17.35;7.15;;;22.70;93.80;;;;;;5052869;28;20044;-73
2021/08/13 07:36:30;;;;;;;14.38;6.43;;;22.80;93.70;;;;;;5053033;28;20101;-73
2021/08/13 07:38:55;;;;;;;15.40;6.35;;;22.90;93.30;;;;;;5053114;28;20513;-75
2021/08/13 07:41:23;;;;;;;10.93;6.05;;;23.00;93.50;;;;;;5051542;28;20462;-72
2021/08/13 07:43:48;;;;;;;11.43;6.63;;;23.10;93.20;;;;;;5051722;28;20021;-71
2021/08/13 07:46:14;;;;;;;15.27;6.50;;;23.20;92.80;;;;;;5052736;28;20048;-73
2021/08/13 07:48:40;;;;;;;15.43;7.45;;;23.30;93.00;;;;;;5052531;28;20041;-72
2021/08/13 07:51:05;;;;;;;18.23;7.93;;;23.40;92.60;;;;;;5052891;28;20079;-69
2021/08/13 07:53:31;;;;;;;14.73;7.00;;;23.50;92.30;;;;;;5051245;28;20085;-71
2021/08/13 07:55:56;;;;;;;19.73;7.85;;;23.60;92.40;;;;;;5052113;28;20486;-73
2021/08/13 07:58:22;;;;;;;10.30;6.43;;;23.70;92.00;;;;;;5052080;28;20029;-71
2021/08/13 08:00:48;;;;;;;14.85;6.68;;;23.90;92.30;;;;;;5052136;28;20371;-71
2021/08/13 08:03:13;;;;;;;17.88;7.20;;;24.00;92.00;;;;;;5051414;28;20065;-71
2021/08/13 08:05:40;;;;;;;13.90;6.35;;;24.10;91.90;;;;;;5052129;28;20033;-71
2021/08/13 08:08:06;;;;;;;16.00;6.88;;;24.30;91.50;;;;;;5052136;28;20033;-71
2021/08/13 08:10:32;;;;;;;11.82;6.47;;;24.40;91.30;;;;;;5052097;28;20083;-76
2021/08/13 08:12:58;;;;;;;17.08;7.50;;;24.50;91.40;;;;;;5052137;28;20079;-74
2021/08/13 08:15:23;;;;;;;17.13;6.55;;;24.60;91.00;;;;;;5037220;28;20029;-73
2021/08/13 08:17:49;;;;;;;13.35;6.50;;;24.80;91.20;;;;;;5032845;28;20116;-75
2021/08/13 08:20:15;;;;;;;15.63;6.25;;;25.10;90.60;;;;;;5031794;28;20053;-73
2021/08/13 08:22:41;;;;;;;10.18;6.30;;;25.30;90.50;;;;;;5031661;28;20068;-74
2021/08/13 08:25:07;;;;;;;10.35;6.80;;;25.60;90.60;;;;;;5031727;28;20037;-73
2021/08/13 08:27:33;;;;;;;15.75;7.90;;;26.10;88.30;;;;;;5031801;28;20053;-73
2021/08/13 08:29:58;;;;;;;12.05;7.15;;;26.80;85.00;;;;;;5032614;28;20045;-74
2021/08/13 08:32:24;;;;;;;13.48;6.78;;;27.40;82.40;;;;;;5031805;28;20434;-72
2021/08/13 08:34:50;;;;;;;18.70;7.25;;;27.90;80.00;;;;;;5031611;28;20483;-73
2021/08/13 08:37:17;;;;;;;11.13;6.50;;;28.60;78.60;;;;;;5030762;28;20125;-72
2021/08/13 08:39:45;;;;;;;15.93;6.65;;;29.50;78.20;;;;;;5031282;28;20107;-73
2021/08/13 08:42:12;;;;;;;16.27;6.38;;;30.10;75.10;;;;;;5032314;28;20021;-72
2021/08/13 08:44:38;;;;;;;18.55;6.65;;;30.30;73.10;;;;;;5031724;28;20060;-73
2021/08/13 08:47:04;;;;;;;15.07;6.47;;;31.00;72.90;;;;;;5031503;28;20099;-72
2021/08/13 08:49:31;;;;;;;13.43;7.32;;;31.50;70.80;;;;;;5031594;28;20052;-73
2021/08/13 08:51:57;;;;;;;10.27;6.28;;;31.90;69.50;;;;;;5031494;28;20030;-72
2021/08/13 08:54:26;;;;;;;20.17;6.25;;;32.20;65.40;;;;;;5031251;28;20462;-73
2021/08/13 08:56:53;;;;;;;10.45;6.43;;;32.10;66.10;;;;;;5030562;28;20026;-74
2021/08/13 08:59:21;;;;;;;27.13;18.63;;;32.40;65.30;;;;;;5031009;28;20041;-74
2021/08/13 09:01:47;;;;;;;18.83;9.77;;;32.70;63.40;;;;;;5031057;28;20033;-75
2021/08/13 09:04:13;;;;;;;11.27;6.93;;;32.90;62.20;;;;;;5030191;28;20549;-73
2021/08/13 09:06:43;;;;;;;10.98;6.72;;;33.20;62.30;;;;;;5031147;28;20033;-74
2021/08/13 09:09:09;;;;;;;21.90;10.43;;;33.80;61.40;;;;;;5028706;28;20057;-73
2021/08/13 09:11:38;;;;;;;8.98;6.70;;;34.10;60.00;;;;;;5030311;28;20037;-70
2021/08/13 09:14:06;;;;;;;11.25;6.22;;;34.40;59.20;;;;;;5031308;28;20124;-73
2021/08/13 09:16:32;;;;;;;8.60;6.03;;;34.60;58.10;;;;;;5030316;28;20037;-72
2021/08/13 09:19:00;;;;;;;8.55;6.50;;;34.60;57.10;;;;;;5031520;28;20091;-74
2021/08/13 09:21:27;;;;;;;11.32;5.97;;;34.10;57.10;;;;;;5031350;28;20030;-73
2021/08/13 09:23:54;;;;;;;8.82;6.25;;;34.10;58.40;;;;;;5031209;28;20053;-71
2021/08/13 09:26:24;;;;;;;6.93;5.28;;;34.20;57.50;;;;;;5031125;28;20057;-71
2021/08/13 09:28:51;;;;;;;10.43;6.25;;;34.40;57.20;;;;;;5031059;28;20418;-73
2021/08/13 09:31:38;;;;;;;9.75;5.38;;;34.30;56.80;;;;;;5030204;28;20029;-75
2021/08/13 09:34:14;;;;;;;11.82;6.13;;;34.20;57.00;;;;;;5031264;28;20037;-72
2021/08/13 09:36:49;;;;;;;9.30;5.82;;;33.80;56.70;;;;;;5030948;28;20410;-72
2021/08/13 09:39:15;;;;;;;9.18;6.53;;;33.80;56.70;;;;;;5031095;28;20025;-74
2021/08/13 09:41:49;;;;;;;10.73;6.13;;;33.90;57.00;;;;;;5031386;28;20357;-73
2021/08/13 09:44:24;;;;;;;14.80;8.52;;;34.00;56.40;;;;;;5030954;28;20095;-73
2021/08/13 09:47:09;;;;;;;12.02;6.03;;;34.00;55.90;;;;;;5030995;28;20475;-76
2021/08/13 09:49:36;;;;;;;9.93;5.85;;;33.50;55.80;;;;;;5031967;28;20095;-77
2021/08/13 09:52:11;;;;;;;7.25;5.38;;;34.00;56.00;;;;;;5035024;28;20054;-76
2021/08/13 09:54:37;;;;;;;7.60;5.38;;;34.10;56.30;;;;;;5034863;28;20025;-78
2021/08/13 09:57:07;;;;;;;11.10;6.10;;;34.20;55.10;;;;;;5035426;28;20024;-76
2021/08/13 09:59:33;;;;;;;12.60;6.22;;;34.00;54.80;;;;;;5034714;28;20033;-76
2021/08/13 10:02:08;;;;;;;10.40;6.40;;;33.50;55.70;;;;;;5034624;28;20539;-76
2021/08/13 10:04:34;;;;;;;11.55;7.13;;;33.60;55.70;;;;;;5034739;28;20034;-74
2021/08/13 10:06:59;;;;;;;13.27;6.30;;;33.70;56.70;;;;;;5033890;28;20038;-73
2021/08/13 10:09:26;;;;;;;12.90;6.95;;;33.70;57.40;;;;;;5034529;28;20087;-73
2021/08/13 10:12:05;;;;;;;8.48;5.72;;;34.00;56.40;;;;;;5035136;28;20581;-73
2021/08/13 10:14:36;;;;;;;13.38;6.78;;;33.70;57.10;;;;;;5034440;28;20057;-73
2021/08/13 10:17:12;;;;;;;24.02;13.95;;;33.50;57.90;;;;;;5034588;28;20033;-73
2021/08/13 10:19:43;;;;;;;14.63;10.48;;;33.50;56.30;;;;;;5034330;28;20072;-72
2021/08/13 10:22:09;;;;;;;8.35;5.43;;;33.30;57.00;;;;;;5033097;28;20375;-71
2021/08/13 10:24:36;;;;;;;8.57;5.88;;;33.20;56.40;;;;;;5034485;28;20083;-71
2021/08/13 10:27:03;;;;;;;8.57;5.75;;;33.20;57.20;;;;;;5035004;28;20025;-73
2021/08/13 10:29:29;;;;;;;8.13;5.70;;;32.60;56.10;;;;;;5034280;28;20021;-72
2021/08/13 10:31:59;;;;;;;8.82;5.28;;;32.20;57.00;;;;;;5034171;28;20514;-72
2021/08/13 10:34:25;;;;;;;5.45;4.57;;;32.00;57.30;;;;;;5033926;28;20045;-73
2021/08/13 10:36:52;;;;;;;7.95;6.00;;;31.70;57.70;;;;;;5033844;28;20040;-72
2021/08/13 10:39:20;;;;;;;11.25;5.40;;;31.30;57.40;;;;;;5033738;28;20549;-72
2021/08/13 10:41:52;;;;;;;7.18;5.32;;;31.00;58.10;;;;;;5034810;28;20109;-73
2021/08/13 10:44:22;;;;;;;8.55;5.63;;;30.90;58.90;;;;;;5033074;28;20631;-73
2021/08/13 10:46:49;;;;;;;10.60;6.13;;;30.80;59.70;;;;;;5033947;28;20030;-74
2021/08/13 10:49:18;;;;;;;15.57;5.70;;;30.90;59.30;;;;;;5033966;28;20033;-72
2021/08/13 10:51:44;;;;;;;9.65;5.55;;;30.90;59.30;;;;;;5032398;28;20503;-73
2021/08/13 10:54:15;;;;;;;8.63;5.85;;;30.80;60.00;;;;;;5033189;28;20112;-73
2021/08/13 10:56:46;;;;;;;8.48;5.55;;;31.00;59.70;;;;;;5033876;28;20121;-72
2021/08/13 10:59:11;;;;;;;7.43;5.28;;;31.10;60.30;;;;;;5033864;28;20112;-72
2021/08/13 11:02:14;;;;;;;15.25;5.65;;;30.80;60.30;;;;;;5032959;28;20531;-76
2021/08/13 11:04:41;;;;;;;16.08;6.18;;;30.60;59.90;;;;;;5033802;28;20121;-73
2021/08/13 11:07:06;;;;;;;11.15;5.43;;;30.50;60.10;;;;;;5033336;28;20026;-73
2021/08/13 11:09:34;;;;;;;12.68;5.82;;;30.60;59.80;;;;;;5033584;28;20030;-72
2021/08/13 11:12:05;;;;;;;10.45;5.63;;;30.60;59.80;;;;;;5033918;28;20120;-72
2021/08/13 11:14:35;;;;;;;8.23;5.75;;;30.40;59.40;;;;;;5033621;28;20091;-71
2021/08/13 11:17:02;;;;;;;11.85;5.63;;;30.30;60.60;;;;;;5033307;28;20471;-70
2021/08/13 11:19:48;;;;;;;7.97;5.13;;;30.30;60.30;;;;;;5033534;28;20658;-73
2021/08/13 11:22:35;;;;;;;7.45;5.10;;;30.50;60.30;;;;;;5032723;28;20038;-72
2021/08/13 11:25:02;;;;;;;9.52;5.80;;;30.60;60.80;;;;;;5033240;28;20378;-71
2021/08/13 11:27:28;;;;;;;8.88;5.47;;;30.60;60.00;;;;;;5033392;28;20090;-73
2021/08/13 11:29:54;;;;;;;9.25;6.35;;;30.50;60.00;;;;;;5033585;28;20018;-72
2021/08/13 11:32:19;;;;;;;8.93;5.85;;;30.50;60.20;;;;;;5033253;28;20029;-72
2021/08/13 11:35:04;;;;;;;8.88;5.45;;;30.50;59.80;;;;;;5033216;28;20497;-72
2021/08/13 11:37:42;;;;;;;11.55;5.63;;;30.40;60.10;;;;;;5032732;28;20041;-73
2021/08/13 11:40:14;;;;;;;8.52;5.57;;;30.20;60.30;;;;;;5031671;28;20038;-72
2021/08/13 11:42:54;;;;;;;7.22;5.72;;;30.10;60.60;;;;;;5032966;28;20507;-73
2021/08/13 11:45:20;;;;;;;10.30;6.63;;;29.90;61.60;;;;;;5032851;28;20439;-74
2021/08/13 11:47:53;;;;;;;12.07;5.28;;;29.80;62.00;;;;;;5033982;28;20041;-77
2021/08/13 11:50:20;;;;;;;8.25;6.38;;;29.70;61.70;;;;;;5032880;28;20033;-73
2021/08/13 11:52:50;;;;;;;8.43;5.30;;;29.60;62.30;;;;;;5032625;28;20080;-74
2021/08/13 11:55:21;;;;;;;10.55;5.25;;;29.70;62.50;;;;;;5032637;28;20025;-73
2021/08/13 11:57:47;;;;;;;7.90;5.38;;;29.60;62.90;;;;;;5032524;28;20372;-74
2021/08/13 12:00:25;;;;;;;9.65;5.47;;;29.50;63.10;;;;;;5033036;28;20025;-75
2021/08/13 12:03:03;;;;;;;7.93;5.70;;;29.50;63.50;;;;;;5032606;28;20039;-73
2021/08/13 12:05:34;;;;;;;8.52;6.03;;;29.60;63.20;;;;;;5032454;28;20029;-72
2021/08/13 12:08:09;;;;;;;9.13;5.53;;;29.70;63.00;;;;;;5032274;28;20041;-73
2021/08/13 12:10:36;;;;;;;11.85;6.28;;;29.70;63.30;;;;;;5032422;28;20044;-75
2021/08/13 12:13:10;;;;;;;12.23;6.32;;;29.80;62.90;;;;;;5031404;28;20336;-72
2021/08/13 12:15:40;;;;;;;9.27;6.22;;;29.70;64.00;;;;;;5032291;28;20091;-74
2021/08/13 12:18:07;;;;;;;10.05;5.88;;;29.80;63.20;;;;;;5032765;28;20072;-70
2021/08/13 12:20:33;;;;;;;13.65;6.30;;;29.80;62.80;;;;;;5032242;28;20049;-74
2021/08/13 12:23:02;;;;;;;7.67;5.30;;;29.90;63.50;;;;;;5032009;28;20049;-74
2021/08/13 12:25:36;;;;;;;12.45;7.00;;;29.90;62.30;;;;;;5032245;28;20105;-73
2021/08/13 12:28:03;;;;;;;9.52;5.70;;;29.90;62.70;;;;;;5032001;28;20124;-74
2021/08/13 12:30:29;;;;;;;12.88;7.38;;;29.90;63.00;;;;;;5032070;28;20075;-72
2021/08/13 12:32:56;;;;;;;10.55;5.93;;;30.00;63.10;;;;;;5032809;28;20022;-70
2021/08/13 12:35:22;;;;;;;11.68;6.60;;;30.00;62.80;;;;;;5031863;28;20030;-71
2021/08/13 12:37:48;;;;;;;11.40;6.93;;;30.10;62.80;;;;;;5031502;28;20420;-73
2021/08/13 12:40:16;;;;;;;10.73;6.20;;;30.00;62.10;;;;;;5031998;28;20065;-74
2021/08/13 12:42:44;;;;;;;13.70;6.13;;;30.00;62.60;;;;;;5031782;28;20044;-72